Drummond Island, MI

11:49 AM EDT on July 03, 2015 (GMT -0400)
Potagannissing Bay Front | | Change Station
CLOSE
Current Station
Personal Weather Station
Location: Drummond Island, MI
Elevation: 587 ft
Nearby Weather Stations

Elev 587 ft 46.06 °N, 83.67 °W | Updated 36 seconds ago

Overcast
Overcast
64.8 °F
Feels Like 64.8 °F
N
12.0
Wind Variable Wind from SW
Gusts 17.0 mph

Today
High -- | Low -- °F
--% Chance of Precip.
Yesterday
High -- | Low -- °F
Precip. -- in
5:49 AM 9:28 PM
Full, 97% visible
Pressure 29.94 in
Visibility 10.0 miles
Clouds Scattered Clouds 6500 ft
Overcast 8500 ft
Dew Point 54 °F
Humidity 67%
Rainfall 0.00 in
Snow Depth Not available.
UV 3 out of 12
Pollen 4.70 out of 12
Air Quality Not available.
Flu Activity Not available.
METAR KDRM 031534Z AUTO 21008KT 10SM SCT065 OVC085 18/12 A2994 RMK AO2 T01790116

More Conditions Fewer Conditions

Pressure 29.94 in
Visibility 10.0 miles
Clouds Scattered Clouds 6500 ft
Overcast 8500 ft
Dew Point 54 °F
Humidity 67%
Rainfall 0.00 in
Snow Depth Not available.
UV 3 out of 12
Pollen 4.70 out of 12
Air Quality Not available.
Flu Activity Not available.
METAR KDRM 031534Z AUTO 21008KT 10SM SCT065 OVC085 18/12 A2994 RMK AO2 T01790116

More Conditions Fewer Conditions

Nowcast | as of 11:00 am EDT on July 3, 2015

At 12 PM...partly cloudy. Temperature 69. Southwest winds 9 mph. At 2 PM...partly cloudy. Chance of showers and slight chance of thunderstorms. Temperature 73. Southwest winds 12 mph. At 4 PM...partly cloudy. Chance of showers and slight chance of thunderstorms. Temperature 74. Southwest winds 12 mph. At 6 PM...partly cloudy. Chance of showers and slight chance of thunderstorms. Temperature 73. Southwest winds 9 mph.

×

10-Day Weather Forecast

×

Almanac

Astronomy

Jul. 03, 2015 Rise Set
Actual Time
Civil Twilight
Nautical Twilight
Astronomical Twilight
Moon
Length of Visible Light
Length of Day
Tomorrow will be .
, % of the Moon is Illuminated

Today's Extremes

State Highs State Lows

Community

WunderPhotos

Upload Photos

1,834,679 photos uploaded!

WunderBlogs® & News

Nearby

Air Quality

  Air Quality AQ Index Pollutant
Not available.

Snow Depth

Station Depth Elevation

Earthquake Activity

City Distance Mag. Time & Date
Minimum magnitude displayed is 2.5.

Coastal Water Temperatures

Place Temperature

Stations

Nearby Weather Stations

Station Location Temp. Windchill Dew Point Humidity Wind Precip. Elev Updated Type